Time;durP1;ratioP1;P1;durP2;ratioP2;P2;SDS_P1;SDS_P2;PMS_P1;PMS_P2;Temp;Humidity;BMP_temperature;BMP_pressure;BME280_temperature;BME280_humidity;BME280_pressure;Samples;Min_cycle;Max_cycle;Signal;HPM_P1;HPM_P2
2023/09/03 00:04:08;;;;;;;6.07;5.47;;;;;;;-144.30;69.84;84215.78;5087596;28;20202;-51
2023/09/03 00:10:13;;;;;;;5.97;5.38;;;;;;;-144.30;69.73;84207.84;5088444;28;20203;-54
2023/09/03 00:16:30;;;;;;;;;;;;;;;;;;;;;
2023/09/03 00:26:10;;;;;;;7.50;5.85;;;;;;;-144.30;69.37;84239.66;5088183;28;20191;-50
2023/09/03 00:35:30;;;;;;;13.52;12.07;;;;;;;-144.30;71.02;84303.25;5086929;28;20592;-49
2023/09/03 00:38:27;;;;;;;8.60;7.82;;;;;;;-144.30;71.11;84255.53;5088265;28;20290;-55
2023/09/03 00:50:52;;;;;;;9.38;8.43;;;;;;;-144.30;70.88;84307.22;5089375;28;20303;-50
2023/09/03 00:59:55;;;;;;;7.45;5.60;;;;;;;-144.30;70.07;84267.47;5090656;28;20198;-51
2023/09/03 01:37:50;;;;;;;6.90;5.38;;;;;;;-144.30;67.80;84346.97;5143135;27;20189;-54
2023/09/03 01:40:57;;;;;;;6.22;5.70;;;;;;;-144.30;67.48;84354.91;5147331;27;20288;-50
2023/09/03 01:53:52;;;;;;;6.25;5.78;;;;;;;-144.30;67.53;84368.81;5146075;27;20196;-50
2023/09/03 02:00:28;;;;;;;7.10;6.40;;;;;;;-144.30;68.24;84406.59;5145576;27;20242;-54
2023/09/03 02:03:20;;;;;;;6.05;5.55;;;;;;;-144.30;68.58;84406.59;5143454;27;20708;-54
2023/09/03 02:18:21;;;;;;;9.77;7.15;;;;;;;-144.30;71.74;84468.19;5146615;27;20208;-49
2023/09/03 02:21:38;;;;;;;7.40;6.78;;;;;;;-144.30;72.64;84474.16;5146721;27;21149;-49
2023/09/03 02:43:01;;;;;;;6.88;6.22;;;;;;;-144.30;74.02;84470.19;5129448;27;20214;-54
2023/09/03 02:48:53;;;;;;;10.65;6.75;;;;;;;-144.30;75.28;84480.13;5128199;27;20202;-54
2023/09/03 02:55:25;;;;;;;7.65;7.13;;;;;;;-144.30;76.17;84501.97;5130708;27;20240;-54
2023/09/03 03:01:42;;;;;;;11.18;8.38;;;;;;;-144.30;76.74;84511.91;5123659;27;20733;-50
2023/09/03 03:20:40;;;;;;;9.15;8.30;;;;;;;-144.30;77.63;84569.53;5129811;27;20201;-55
2023/09/03 03:26:00;;;;;;;8.35;7.72;;;;;;;-144.30;76.22;84537.75;5129309;27;20229;-50
2023/09/03 03:28:44;;;;;;;9.43;7.93;;;;;;;-144.30;75.64;84468.19;5128173;27;20194;-51
2023/09/03 03:31:59;;;;;;;8.45;7.68;;;;;;;-144.30;75.22;84557.63;5130169;27;20190;-54
2023/09/03 03:41:39;;;;;;;8.40;7.53;;;;;;;-144.30;74.24;84513.91;5131969;27;20513;-55
2023/09/03 03:44:12;;;;;;;12.25;9.55;;;;;;;-144.30;74.28;84543.72;5131292;27;20205;-50
2023/09/03 03:53:33;;;;;;;11.10;7.93;;;;;;;-144.30;74.52;84565.56;5129643;27;20688;-54
2023/09/03 03:59:18;;;;;;;9.35;8.55;;;;;;;-144.30;74.10;84577.50;4794934;27;9954944;-54
2023/09/03 04:01:58;;;;;;;10.60;8.55;;;;;;;-144.30;73.80;84553.66;5113285;28;20190;-54
2023/09/03 04:04:31;;;;;;;10.23;9.15;;;;;;;-144.30;74.00;84529.81;5113329;28;20195;-50
2023/09/03 04:07:22;;;;;;;10.07;9.05;;;;;;;-144.30;74.11;84573.53;5115277;28;20195;-50
2023/09/03 04:12:53;;;;;;;10.98;9.88;;;;;;;-144.30;73.22;84581.47;5108997;28;20208;-50
2023/09/03 04:15:27;;;;;;;10.15;9.15;;;;;;;-144.30;72.56;84577.50;5106900;28;20209;-50
2023/09/03 04:18:09;;;;;;;9.30;8.02;;;;;;;-144.30;71.74;84545.69;5121432;28;20232;-54
2023/09/03 04:20:44;;;;;;;7.65;7.03;;;;;;;-144.30;70.27;84472.16;5121901;28;20656;-54
2023/09/03 04:23:17;;;;;;;8.80;8.00;;;;;;;-144.30;69.22;84501.97;5116879;28;20280;-54
2023/09/03 04:25:58;;;;;;;8.35;7.55;;;;;;;-144.30;68.20;84490.06;5114535;28;20690;-54
2023/09/03 04:28:40;;;;;;;9.90;7.70;;;;;;;-144.30;67.89;84501.97;5116554;28;20618;-50
2023/09/03 04:31:31;;;;;;;8.00;7.40;;;;;;;-144.30;66.51;84468.19;5115885;28;20277;-55
2023/09/03 04:34:00;;;;;;;7.68;6.97;;;;;;;-144.30;65.11;84414.53;5114505;28;20263;-54
2023/09/03 04:36:31;;;;;;;7.55;6.93;;;;;;;-144.30;63.29;84311.19;5115302;28;20201;-54
2023/09/03 04:39:09;;;;;;;8.32;7.35;;;;;;;-144.30;61.07;84293.31;5113944;28;20250;-54
2023/09/03 04:41:56;;;;;;;7.25;6.63;;;;;;;-144.30;59.68;84225.75;5119918;28;20247;-54
2023/09/03 04:44:24;;;;;;;8.18;6.80;;;;;;;-144.30;58.54;84160.16;5124479;28;20198;-50
2023/09/03 04:47:23;;;;;;;7.47;6.88;;;;;;;-144.30;55.58;84017.06;5106163;28;20203;-54
2023/09/03 04:50:06;;;;;;;8.80;6.90;;;;;;;-144.30;51.91;83802.47;5120127;28;20597;-50
2023/09/03 04:52:52;;;;;;;8.02;7.10;;;;;;;-144.30;49.11;83657.41;5124352;28;20190;-50
2023/09/03 04:55:40;;;;;;;7.00;6.50;;;;;;;-144.30;45.85;83401.13;5122513;28;20212;-51
2023/09/03 04:58:28;;;;;;;6.78;6.15;;;;;;;-144.30;43.33;83196.47;5123294;28;20229;-50
2023/09/03 05:01:05;;;;;;;6.97;6.45;;;;;;;-144.30;40.84;82966.03;5124449;28;20225;-54
2023/09/03 05:03:50;;;;;;;7.57;6.72;;;;;;;-144.30;38.66;82757.47;5115189;28;20272;-49
2023/09/03 05:06:27;;;;;;;8.18;7.22;;;;;;;-144.30;37.25;82644.22;5115377;28;20639;-50
2023/09/03 05:09:15;;;;;;;9.50;6.95;;;;;;;-144.30;36.43;82497.25;5119044;28;20229;-54
2023/09/03 05:11:50;;;;;;;7.47;6.97;;;;;;;-144.30;35.79;82352.25;5102562;28;20280;-51
2023/09/03 05:14:30;;;;;;;7.22;6.63;;;;;;;-144.30;34.79;82243.00;5101641;28;20629;-51
2023/09/03 05:17:12;;;;;;;7.80;7.20;;;;;;;-144.30;33.72;82102.00;5102047;28;20199;-52
2023/09/03 05:19:52;;;;;;;7.78;7.15;;;;;;;-144.30;33.29;82044.41;5100434;28;20231;-52
2023/09/03 05:22:36;;;;;;;6.97;6.38;;;;;;;-144.30;33.00;82032.50;5100519;28;20195;-51
2023/09/03 05:25:22;;;;;;;6.30;5.90;;;;;;;-144.30;32.93;81953.06;5099521;28;20202;-52
2023/09/03 05:27:53;;;;;;;6.20;5.80;;;;;;;-144.30;32.39;81849.78;5103131;28;20217;-55
2023/09/03 05:30:34;;;;;;;6.35;5.93;;;;;;;-144.30;31.58;81746.53;5089852;28;20667;-54
2023/09/03 05:33:18;;;;;;;6.18;5.78;;;;;;;-144.30;31.19;81635.31;5091403;28;20206;-51
2023/09/03 05:35:56;;;;;;;6.57;6.03;;;;;;;-144.30;30.55;81488.38;5091928;28;20199;-51
2023/09/03 05:38:31;;;;;;;6.18;5.78;;;;;;;-144.30;30.55;81490.34;5091740;28;20262;-51
2023/09/03 05:41:29;;;;;;;7.78;6.95;;;;;;;-144.30;30.48;81712.75;5090810;28;20202;-52
2023/09/03 05:44:27;;;;;;;8.60;7.90;;;;;;;-144.30;30.14;81363.28;5089948;28;20210;-51
2023/09/03 05:47:13;;;;;;;9.93;8.05;;;;;;;-144.30;29.28;81190.53;5091356;28;20199;-55
2023/09/03 05:49:50;;;;;;;7.63;6.93;;;;;;;-144.30;29.30;81117.06;5089492;28;20582;-54
2023/09/03 05:52:44;;;;;;;9.07;8.35;;;;;;;-144.30;29.03;81132.94;5090045;28;20276;-51
2023/09/03 05:55:27;;;;;;;7.03;6.63;;;;;;;-144.30;29.15;81065.44;5092212;28;20194;-55
2023/09/03 05:58:02;;;;;;;10.38;9.40;;;;;;;-144.30;28.92;81119.06;5104310;28;20690;-56
2023/09/03 06:00:37;;;;;;;6.32;5.93;;;;;;;-144.30;28.68;81095.22;5098918;28;20186;-55
2023/09/03 06:03:15;;;;;;;10.63;9.80;;;;;;;-144.30;28.99;81123.03;5101744;28;20280;-52
2023/09/03 06:05:52;;;;;;;9.45;8.85;;;;;;;-144.30;28.83;81128.97;5101926;28;20198;-52
2023/09/03 06:08:29;;;;;;;15.95;11.95;;;;;;;-144.30;29.22;81234.22;5099640;28;20697;-51
2023/09/03 06:11:14;;;;;;;11.35;10.13;;;;;;;-144.30;28.72;81335.47;5100833;28;20187;-55
2023/09/03 06:13:53;;;;;;;7.97;7.47;;;;;;;-144.30;28.32;80890.72;5111176;28;20209;-56
2023/09/03 06:16:37;;;;;;;8.80;6.53;;;;;;;-144.30;27.67;80710.06;5111346;28;20255;-55
2023/09/03 06:19:22;;;;;;;8.27;7.60;;;;;;;-144.30;27.81;80720.00;5111216;28;20779;-55
2023/09/03 06:21:56;;;;;;;9.15;8.40;;;;;;;-144.30;27.47;80735.88;5110375;28;20277;-56
2023/09/03 06:28:07;;;;;;;9.43;8.35;;;;;;;-144.30;27.10;80543.31;5110940;28;20280;-56
2023/09/03 06:47:22;;;;;;;6.30;5.72;;;;;;;-144.30;25.48;79902.16;5108274;28;20198;-55
2023/09/03 06:50:15;;;;;;;5.95;5.45;;;;;;;-144.30;26.06;79953.78;5110837;28;20190;-56
2023/09/03 06:53:10;;;;;;;6.38;5.70;;;;;;;-144.30;25.36;79711.63;5110491;28;20233;-51
2023/09/03 06:58:51;;;;;;;5.88;5.38;;;;;;;-144.30;26.11;80142.34;5107276;28;20233;-52
2023/09/03 07:09:09;;;;;;;5.53;5.22;;;;;;;-144.30;25.90;79719.56;5127751;28;20207;-50
2023/09/03 07:12:29;;;;;;;5.88;5.30;;;;;;;-144.30;25.38;79531.03;5127050;28;20654;-54
2023/09/03 07:15:35;;;;;;;8.05;5.22;;;;;;;-144.30;25.64;79586.59;5127167;28;20225;-50
2023/09/03 07:30:37;;;;;;;8.88;5.05;;;;;;;-144.30;25.86;79707.66;5118566;28;20217;-52
2023/09/03 07:33:24;;;;;;;6.03;5.57;;;;;;;-144.30;26.60;80013.31;5127186;28;20683;-49
2023/09/03 07:36:34;;;;;;;10.35;9.43;;;;;;;-144.30;26.07;79842.63;5127516;28;20254;-55
2023/09/03 07:52:20;;;;;;;4.82;4.43;;;;;;;-144.30;24.83;78937.72;5124032;28;20205;-55
2023/09/03 07:58:05;;;;;;;4.45;4.25;;;;;;;-144.30;23.89;78433.75;5116632;28;20642;-54
2023/09/03 08:00:35;;;;;;;4.78;4.43;;;;;;;-144.30;24.04;78552.78;5124262;28;20205;-49
2023/09/03 08:03:28;;;;;;;4.55;4.15;;;;;;;-144.30;23.74;78144.13;5125413;28;20697;-55
2023/09/03 08:05:56;;;;;;;7.40;6.80;;;;;;;-144.30;23.18;77800.94;5114753;28;20280;-48
2023/09/03 08:08:47;;;;;;;7.47;6.95;;;;;;;-144.30;22.94;77322.94;5124644;28;20209;-51
2023/09/03 08:11:22;;;;;;;4.72;4.38;;;;;;;-144.30;22.97;77850.53;5125322;28;20685;-51
2023/09/03 08:14:07;;;;;;;10.30;9.32;;;;;;;-144.30;23.13;77894.16;5124733;28;20229;-51
2023/09/03 08:16:41;;;;;;;5.18;4.43;;;;;;;-144.30;23.12;77880.28;5112370;28;20251;-50
2023/09/03 08:19:13;;;;;;;10.38;9.45;;;;;;;-144.30;22.85;77525.25;5112226;28;20194;-56
2023/09/03 08:21:48;;;;;;;6.25;4.80;;;;;;;-144.30;22.50;77604.56;5112043;28;20190;-55
2023/09/03 08:24:27;;;;;;;6.13;5.55;;;;;;;-144.30;22.44;77640.28;5112121;28;20233;-50
2023/09/03 08:26:58;;;;;;;5.90;4.55;;;;;;;-144.30;22.45;77596.63;5111502;28;20201;-51
2023/09/03 08:29:29;;;;;;;4.55;4.15;;;;;;;-144.30;22.34;77497.47;5110738;28;20194;-56
2023/09/03 08:35:32;;;;;;;4.60;4.20;;;;;;;-144.30;22.74;78154.03;5110406;28;20289;-55
2023/09/03 08:44:49;;;;;;;6.35;3.83;;;;;;;-144.30;22.28;77973.50;5111418;28;20224;-50
2023/09/03 08:47:58;;;;;;;7.68;7.00;;;;;;;-144.30;22.14;77568.88;5106292;28;20198;-51
2023/09/03 08:53:46;;;;;;;8.63;8.00;;;;;;;-144.30;22.19;77844.59;5111204;28;20213;-55
2023/09/03 08:56:36;;;;;;;4.35;4.03;;;;;;;-144.30;22.41;78128.25;5110948;28;21259;-51
2023/09/03 08:59:07;;;;;;;16.15;14.65;;;;;;;-144.30;22.23;77664.06;5111355;28;20670;-55
2023/09/03 09:01:43;;;;;;;15.00;13.85;;;;;;;-144.30;21.88;77439.94;5111225;28;20284;-50
2023/09/03 09:07:24;;;;;;;11.35;10.63;;;;;;;-144.30;22.05;78608.34;5107802;28;20205;-49
2023/09/03 09:13:26;;;;;;;3.67;3.33;;;;;;;-144.30;20.91;78935.72;5110644;28;20224;-55
2023/09/03 09:16:36;;;;;;;3.50;3.30;;;;;;;-144.30;21.00;78810.72;5111174;28;20194;-50
2023/09/03 09:22:19;;;;;;;5.65;3.85;;;;;;;-144.30;21.07;78834.53;5109530;28;20194;-54
2023/09/03 09:24:48;;;;;;;3.90;3.60;;;;;;;-144.30;21.23;79064.69;5110912;28;20248;-50
2023/09/03 09:27:19;;;;;;;4.13;3.80;;;;;;;-144.30;21.19;79023.03;5109318;28;20717;-51
2023/09/03 09:29:53;;;;;;;4.10;3.90;;;;;;;-144.30;21.45;79294.88;5110755;28;20392;-50
2023/09/03 09:32:24;;;;;;;5.05;4.10;;;;;;;-144.30;21.61;79235.34;5110899;28;20193;-56
2023/09/03 09:42:07;;;;;;;3.72;3.40;;;;;;;-144.30;21.15;78913.91;5104404;28;20194;-56
2023/09/03 09:48:19;;;;;;;4.25;3.97;;;;;;;-144.30;21.28;79052.78;5110190;28;20194;-56
2023/09/03 10:00:35;;;;;;;5.63;3.60;;;;;;;-144.30;22.73;80583.00;5108497;28;20214;-51
2023/09/03 10:03:07;;;;;;;4.35;3.53;;;;;;;-144.30;23.55;80972.13;5104681;28;20758;-56
2023/09/03 10:05:38;;;;;;;8.10;7.50;;;;;;;-144.30;24.06;81093.25;5069055;28;20634;-57
2023/09/03 10:08:15;;;;;;;13.48;12.18;;;;;;;-144.30;24.81;81377.16;5056234;28;20191;-56
2023/09/03 10:10:52;;;;;;;4.30;3.97;;;;;;;-144.30;24.98;81710.78;5067889;28;20303;-56
2023/09/03 10:13:38;;;;;;;4.82;3.38;;;;;;;-144.30;25.21;81825.94;5068859;28;20214;-52
2023/09/03 10:16:15;;;;;;;3.55;3.35;;;;;;;-144.30;25.42;81951.06;5068795;28;20698;-51
2023/09/03 10:18:50;;;;;;;3.80;3.60;;;;;;;-144.30;25.79;82002.69;5057971;28;20195;-50
2023/09/03 10:21:25;;;;;;;4.40;3.28;;;;;;;-144.30;26.07;82046.41;5069158;28;20261;-56
2023/09/03 10:24:05;;;;;;;4.43;4.07;;;;;;;-144.30;26.30;82086.13;5069165;28;20287;-50
2023/09/03 10:26:50;;;;;;;3.67;3.42;;;;;;;-144.30;26.59;82119.88;5069335;28;20192;-55
2023/09/03 10:29:29;;;;;;;3.90;3.55;;;;;;;-144.30;27.33;82098.03;5069264;28;20206;-51
2023/09/03 10:32:03;;;;;;;3.92;3.63;;;;;;;-144.30;27.91;82229.09;5069297;28;20199;-52
2023/09/03 10:34:53;;;;;;;4.30;4.00;;;;;;;-144.30;28.70;82427.72;5068350;28;20196;-51
2023/09/03 10:37:58;;;;;;;3.60;3.40;;;;;;;-144.30;28.49;82487.31;5069236;28;20231;-54
2023/09/03 10:40:52;;;;;;;3.88;3.60;;;;;;;-144.30;29.97;82540.94;5068192;28;20243;-55
2023/09/03 10:44:07;;;;;;;3.42;3.33;;;;;;;-144.30;28.79;82531.00;5068047;28;20203;-55
2023/09/03 10:49:58;;;;;;;3.85;3.65;;;;;;;-144.30;29.54;82505.19;5067531;28;20290;-50
2023/09/03 10:52:43;;;;;;;4.75;4.45;;;;;;;-144.30;30.04;82499.22;5068995;28;20275;-56
2023/09/03 10:55:23;;;;;;;4.03;3.83;;;;;;;-144.30;29.31;82465.47;5069183;28;20234;-56
2023/09/03 10:58:33;;;;;;;4.13;3.92;;;;;;;-144.30;29.40;82451.56;5068540;28;20207;-56
2023/09/03 11:01:32;;;;;;;6.90;6.22;;;;;;;-144.30;28.57;82384.03;5067971;28;20204;-56
2023/09/03 11:04:03;;;;;;;4.20;4.00;;;;;;;-144.30;28.54;82435.66;5083078;28;20223;-51
2023/09/03 11:06:37;;;;;;;3.90;3.60;;;;;;;-144.30;28.61;82419.78;5108692;28;20724;-51
2023/09/03 11:09:52;;;;;;;4.10;3.90;;;;;;;-144.30;28.35;82473.41;5108997;28;20198;-50
2023/09/03 11:16:04;;;;;;;4.50;3.95;;;;;;;-144.30;28.88;82475.41;5106546;28;20480;-52
2023/09/03 11:21:51;;;;;;;8.38;6.57;;;;;;;-144.30;28.90;82475.41;5103890;28;20226;-56
2023/09/03 11:24:30;;;;;;;5.35;4.95;;;;;;;-144.30;28.81;82487.31;5108833;28;20222;-52
2023/09/03 11:27:09;;;;;;;3.60;3.30;;;;;;;-144.30;28.71;82487.31;5097884;28;20721;-56
2023/09/03 11:29:52;;;;;;;3.92;3.65;;;;;;;-144.30;28.98;82542.94;5108692;28;20282;-56
2023/09/03 11:33:03;;;;;;;8.45;5.80;;;;;;;-144.30;28.85;82564.78;5104950;28;20626;-56
2023/09/03 11:36:00;;;;;;;5.80;5.30;;;;;;;-144.30;29.36;82562.78;5107607;28;20198;-56
2023/09/03 11:38:54;;;;;;;4.90;4.50;;;;;;;-144.30;29.45;82626.34;5109134;28;20290;-57
2023/09/03 11:41:29;;;;;;;4.88;3.97;;;;;;;-144.30;29.48;82515.13;5109386;28;20256;-52
2023/09/03 11:44:28;;;;;;;;;;;;;;;;;;;;;
2023/09/03 11:47:13;;;;;;;4.22;3.92;;;;;;;-144.30;29.03;82527.03;5108928;28;20195;-52
2023/09/03 11:50:27;;;;;;;4.43;3.85;;;;;;;-144.30;29.37;82491.28;5108817;28;20190;-51
2023/09/03 11:53:05;;;;;;;4.15;3.90;;;;;;;-144.30;29.04;82443.63;5112308;28;20205;-57
2023/09/03 11:55:59;;;;;;;6.13;3.88;;;;;;;-144.30;29.16;82509.16;5112519;28;20195;-56
2023/09/03 11:58:51;;;;;;;4.95;4.10;;;;;;;-144.30;28.91;82527.03;5108520;28;20372;-57
2023/09/03 12:01:50;;;;;;;4.32;3.92;;;;;;;-144.30;29.04;82529.03;5112456;28;20195;-56
2023/09/03 12:04:44;;;;;;;4.43;4.13;;;;;;;-144.30;29.20;82562.78;5111951;28;20955;-55
2023/09/03 12:07:39;;;;;;;4.18;3.90;;;;;;;-144.30;29.41;82620.41;5111625;28;20289;-55
2023/09/03 12:10:12;;;;;;;4.13;3.83;;;;;;;-144.30;29.73;82666.09;5112296;28;20247;-55
2023/09/03 12:12:45;;;;;;;4.00;3.80;;;;;;;-144.30;29.75;82664.09;5112204;28;20209;-55
2023/09/03 12:21:45;;;;;;;4.70;4.30;;;;;;;-144.30;30.03;82685.94;5110323;28;20582;-50
2023/09/03 12:24:36;;;;;;;3.97;3.78;;;;;;;-144.30;29.98;82630.34;5112024;28;20285;-56
2023/09/03 12:27:22;;;;;;;3.92;3.65;;;;;;;-144.30;30.09;82685.94;5111565;28;20204;-55
2023/09/03 12:30:09;;;;;;;4.43;4.03;;;;;;;-144.30;30.25;82680.00;5111583;28;20195;-55
2023/09/03 12:33:06;;;;;;;4.50;4.10;;;;;;;-144.30;29.90;82670.06;5111934;28;20234;-51
2023/09/03 12:39:02;;;;;;;4.15;3.80;;;;;;;-144.30;30.01;82721.69;5111987;28;20252;-52
2023/09/03 12:41:53;;;;;;;4.00;3.58;;;;;;;-144.30;30.15;82689.91;5111610;28;20190;-55
2023/09/03 12:48:01;;;;;;;3.63;3.42;;;;;;;-144.30;30.13;82701.84;5110607;28;20666;-57
2023/09/03 12:51:09;;;;;;;3.60;3.40;;;;;;;-144.30;29.94;82717.72;5111588;28;20598;-55
2023/09/03 12:54:11;;;;;;;4.25;3.85;;;;;;;-144.30;30.18;82699.84;5110163;28;20624;-52
2023/09/03 12:56:45;;;;;;;3.83;3.50;;;;;;;-144.30;30.01;82705.81;5110089;28;20394;-56
2023/09/03 12:59:17;;;;;;;3.45;3.25;;;;;;;-144.30;29.82;82741.56;5111631;28;20285;-55
2023/09/03 13:02:02;;;;;;;4.07;3.75;;;;;;;-144.30;30.01;82737.59;5111151;28;20222;-56
2023/09/03 13:04:41;;;;;;;4.40;4.10;;;;;;;-144.30;30.03;82741.56;5107705;28;20620;-55
2023/09/03 13:07:14;;;;;;;5.07;4.60;;;;;;;-144.30;30.11;82707.81;5109876;28;20199;-50
2023/09/03 13:09:52;;;;;;;4.13;3.85;;;;;;;-144.30;30.06;82713.75;5108645;28;20201;-52
2023/09/03 13:12:33;;;;;;;4.35;4.05;;;;;;;-144.30;29.87;82689.91;5108422;28;20240;-51
2023/09/03 13:15:14;;;;;;;3.78;3.50;;;;;;;-144.30;29.80;82666.09;5108405;28;20217;-50
2023/09/03 13:17:51;;;;;;;3.70;3.50;;;;;;;-144.30;29.82;83146.81;5108305;28;20309;-49
2023/09/03 13:20:23;;;;;;;5.13;4.63;;;;;;;-144.30;29.88;82668.06;5108105;28;20194;-50
2023/09/03 13:23:04;;;;;;;3.78;3.58;;;;;;;-144.30;29.77;82691.91;5108359;28;20230;-50
2023/09/03 13:25:34;;;;;;;3.17;3.08;;;;;;;-144.30;29.01;82634.31;5104764;28;20195;-51
2023/09/03 13:28:12;;;;;;;3.13;3.03;;;;;;;-144.30;29.26;82683.97;5109134;28;20190;-55
2023/09/03 13:30:49;;;;;;;4.60;3.75;;;;;;;-144.30;29.41;82668.06;5109163;28;20233;-55
2023/09/03 13:33:18;;;;;;;3.45;3.25;;;;;;;-144.30;29.63;82725.69;5107822;28;20199;-51
2023/09/03 13:35:55;;;;;;;5.38;3.40;;;;;;;-144.30;29.35;82733.63;5110180;28;20218;-51
2023/09/03 13:38:27;;;;;;;3.92;3.72;;;;;;;-144.30;29.64;82731.63;5109696;28;20266;-51
2023/09/03 13:41:08;;;;;;;3.80;3.50;;;;;;;-144.30;29.38;82691.91;5108399;28;20654;-51
2023/09/03 13:43:51;;;;;;;7.53;4.10;;;;;;;-144.30;29.42;82666.09;5108598;28;20194;-50
2023/09/03 13:46:29;;;;;;;5.20;3.70;;;;;;;-144.30;29.26;82705.81;5106836;28;20278;-50
2023/09/03 13:49:13;;;;;;;4.20;4.00;;;;;;;-144.30;29.43;82689.91;5106450;28;20720;-55
2023/09/03 13:51:50;;;;;;;4.03;3.83;;;;;;;-144.30;29.66;82685.94;5109050;28;20199;-50
2023/09/03 13:54:28;;;;;;;3.92;3.63;;;;;;;-144.30;29.37;82713.75;5105059;28;20203;-50
2023/09/03 13:57:10;;;;;;;4.10;3.70;;;;;;;-144.30;29.56;82701.84;5093947;28;20207;-48
2023/09/03 14:00:04;;;;;;;4.10;3.90;;;;;;;-144.30;29.41;82681.97;5089054;28;20203;-55
2023/09/03 14:03:05;;;;;;;5.40;3.60;;;;;;;-144.30;29.40;82693.88;5089884;28;20299;-55
2023/09/03 14:05:36;;;;;;;4.47;3.58;;;;;;;-144.30;29.51;82672.03;5089327;28;20230;-54
2023/09/03 14:08:10;;;;;;;4.30;3.90;;;;;;;-144.30;29.53;82658.13;5090149;28;20376;-48
2023/09/03 14:10:49;;;;;;;12.68;5.80;;;;;;;-144.30;29.50;82687.94;5089942;28;20195;-49
2023/09/03 14:13:27;;;;;;;4.22;3.83;;;;;;;-144.30;30.05;82658.13;5088991;28;20203;-54
2023/09/03 14:16:48;;;;;;;4.32;3.80;;;;;;;-144.30;29.80;82630.34;5086434;28;20222;-53
2023/09/03 14:19:28;;;;;;;3.97;3.70;;;;;;;-144.30;30.86;82749.50;5088901;28;20201;-49
2023/09/03 14:25:14;;;;;;;4.18;3.75;;;;;;;-144.30;32.23;82753.50;5102787;28;20193;-50
2023/09/03 14:28:02;;;;;;;3.88;3.55;;;;;;;-144.30;30.75;82809.09;5089204;28;20207;-56
2023/09/03 14:30:34;;;;;;;4.00;3.70;;;;;;;-144.30;29.88;82785.28;5094024;28;20663;-56
2023/09/03 14:33:20;;;;;;;5.53;3.75;;;;;;;-144.30;29.96;82803.16;5089385;28;20210;-55
2023/09/03 14:36:12;;;;;;;3.88;3.67;;;;;;;-144.30;29.51;82819.03;5089468;28;20695;-56
2023/09/03 14:38:48;;;;;;;4.00;3.70;;;;;;;-144.30;29.74;82813.06;5088355;28;20209;-56
2023/09/03 14:41:38;;;;;;;3.95;3.60;;;;;;;-144.30;29.58;82852.81;5088934;28;20205;-51
2023/09/03 14:44:38;;;;;;;4.80;3.70;;;;;;;-144.30;29.77;82834.94;5089223;28;20214;-51
2023/09/03 14:47:21;;;;;;;4.40;3.50;;;;;;;-144.30;30.40;82866.72;5088612;28;20226;-55
2023/09/03 14:50:13;;;;;;;4.20;3.90;;;;;;;-144.30;29.83;82773.34;5088412;28;20196;-55
2023/09/03 14:52:54;;;;;;;7.20;3.90;;;;;;;-144.30;30.00;82856.78;5088414;28;20286;-56
2023/09/03 15:02:05;;;;;;;3.35;3.15;;;;;;;-144.30;29.76;82848.84;5108594;28;20287;-50
2023/09/03 15:08:03;;;;;;;3.92;3.65;;;;;;;-144.30;29.51;82695.88;5107310;28;20285;-51
2023/09/03 15:17:11;;;;;;;3.35;3.15;;;;;;;-144.30;29.70;82745.53;5107242;28;20214;-57
2023/09/03 15:23:27;;;;;;;3.80;3.50;;;;;;;-144.30;29.41;82757.47;5102993;28;20207;-55
2023/09/03 15:29:19;;;;;;;5.63;3.22;;;;;;;-144.30;29.22;82765.41;5111990;28;20201;-50
2023/09/03 15:48:15;;;;;;;4.22;3.83;;;;;;;-144.30;30.94;82825.00;5112200;28;20236;-56
2023/09/03 15:51:23;;;;;;;4.07;3.70;;;;;;;-144.30;30.26;82819.03;5112539;28;20582;-56
2023/09/03 16:04:30;;;;;;;5.50;5.00;;;;;;;-144.30;31.92;82882.59;5100240;28;20295;-50
2023/09/03 16:07:17;;;;;;;4.50;3.65;;;;;;;-144.30;32.12;82900.47;5110751;28;20245;-50
2023/09/03 16:23:36;;;;;;;4.97;4.55;;;;;;;-144.30;31.98;82968.03;5110673;28;20223;-55
2023/09/03 16:26:14;;;;;;;4.93;4.10;;;;;;;-144.30;32.90;82972.00;5111948;28;20198;-50
2023/09/03 16:29:14;;;;;;;5.97;5.28;;;;;;;-144.30;32.67;83019.69;5112649;28;20557;-49
2023/09/03 16:45:06;;;;;;;10.73;5.97;;;;;;;-144.30;33.81;83101.13;5109937;28;20642;-49
2023/09/03 16:48:14;;;;;;;6.40;4.93;;;;;;;-144.30;32.88;83103.13;5111739;28;20198;-51
2023/09/03 16:51:23;;;;;;;8.65;5.07;;;;;;;-144.30;32.98;83071.31;5111600;28;20640;-50
2023/09/03 16:54:33;;;;;;;8.48;4.72;;;;;;;-144.30;32.86;83101.13;5111525;28;20238;-50
2023/09/03 17:10:24;;;;;;;5.63;4.88;;;;;;;-144.30;32.76;83138.88;5068734;28;20569;-48
2023/09/03 17:39:13;;;;;;;11.52;8.45;;;;;;;-144.30;35.66;83260.06;5069188;28;20200;-55
2023/09/03 17:42:06;;;;;;;16.77;9.57;;;;;;;-144.30;35.68;83323.63;5069972;28;20231;-56
2023/09/03 17:44:59;;;;;;;15.13;9.80;;;;;;;-144.30;36.26;83341.50;5070115;28;20242;-56
2023/09/03 17:47:30;;;;;;;15.00;10.13;;;;;;;-144.30;36.41;83371.31;5067502;28;20200;-55
2023/09/03 17:50:08;;;;;;;9.07;7.85;;;;;;;-144.30;36.52;83373.31;5067858;28;20217;-56
2023/09/03 17:52:46;;;;;;;7.70;6.93;;;;;;;-144.30;36.63;83337.53;5069735;28;20199;-55
2023/09/03 17:55:33;;;;;;;12.80;7.80;;;;;;;-144.30;36.74;83333.56;5068097;28;20631;-54
2023/09/03 17:58:13;;;;;;;10.38;7.35;;;;;;;-144.30;36.99;83397.16;5067264;28;20224;-56
2023/09/03 18:01:02;;;;;;;9.32;7.53;;;;;;;-144.30;37.11;83397.16;5055837;28;20200;-51
2023/09/03 18:03:51;;;;;;;8.48;7.60;;;;;;;-144.30;37.23;83417.00;5046498;28;20235;-51
2023/09/03 18:10:05;;;;;;;9.98;8.98;;;;;;;-144.30;37.76;83428.94;5048131;28;20287;-55
2023/09/03 18:15:41;;;;;;;12.18;8.13;;;;;;;-144.30;38.01;83512.38;5060398;28;20212;-57
2023/09/03 18:18:14;;;;;;;15.25;11.02;;;;;;;-144.30;38.32;83516.34;5068848;28;20218;-50
2023/09/03 18:20:44;;;;;;;13.70;10.63;;;;;;;-144.30;38.72;83468.66;5068766;28;20204;-56
2023/09/03 18:23:15;;;;;;;18.65;15.43;;;;;;;-144.30;39.10;83528.28;5069264;28;20282;-52
2023/09/03 18:25:53;;;;;;;18.95;12.57;;;;;;;-144.30;39.33;83530.25;5068705;28;20737;-51
2023/09/03 18:28:23;;;;;;;10.55;8.38;;;;;;;-144.30;39.75;83540.19;5069291;28;20500;-51
2023/09/03 18:30:57;;;;;;;12.00;9.25;;;;;;;-144.30;39.93;83572.00;5069106;28;20204;-52
2023/09/03 18:33:47;;;;;;;9.55;7.05;;;;;;;-144.30;40.22;83526.28;5068934;28;20196;-51
2023/09/03 18:36:24;;;;;;;12.55;8.73;;;;;;;-144.30;40.65;83556.09;5064072;28;20200;-51
2023/09/03 18:39:09;;;;;;;11.13;8.52;;;;;;;-144.30;41.06;83554.09;5069068;28;20218;-50
2023/09/03 18:42:13;;;;;;;9.40;6.97;;;;;;;-144.30;41.35;83591.84;5068690;28;20229;-50
2023/09/03 18:45:14;;;;;;;11.85;6.90;;;;;;;-144.30;41.23;83603.78;5068329;28;20243;-50
2023/09/03 18:51:06;;;;;;;8.23;7.45;;;;;;;-144.30;41.50;83643.50;5065993;28;20207;-57
2023/09/03 18:54:14;;;;;;;14.63;7.82;;;;;;;-144.30;41.94;83573.97;5067618;28;20195;-51
2023/09/03 18:57:31;;;;;;;;;;;;;;;;;;;;;
2023/09/03 19:00:23;;;;;;;33.25;16.95;;;;;;;-144.30;41.96;83601.78;5063536;28;20207;-57
2023/09/03 19:03:33;;;;;;;33.08;22.17;;;;;;;-144.30;42.14;83587.88;5068621;28;20583;-56
2023/09/03 19:06:33;;;;;;;26.45;18.05;;;;;;;-144.30;42.24;83659.41;5107748;28;20246;-56
2023/09/03 19:15:24;;;;;;;31.13;15.88;;;;;;;-144.30;42.78;83659.41;5109490;28;20202;-56
2023/09/03 19:18:22;;;;;;;19.73;14.23;;;;;;;-144.30;42.81;83679.28;5108727;28;20330;-56
2023/09/03 19:21:19;;;;;;;25.58;13.40;;;;;;;-144.30;42.95;83715.03;5108110;28;20206;-57
2023/09/03 19:23:49;;;;;;;18.48;12.35;;;;;;;-144.30;43.05;83679.28;5108483;28;20286;-57
2023/09/03 19:26:27;;;;;;;21.50;10.23;;;;;;;-144.30;42.78;83691.19;5106002;28;20198;-50
2023/09/03 19:28:56;;;;;;;21.60;13.48;;;;;;;-144.30;43.21;83703.13;5106542;28;20764;-51
2023/09/03 19:31:46;;;;;;;15.02;9.10;;;;;;;-144.30;42.90;83709.09;5108717;28;20204;-51
2023/09/03 19:34:30;;;;;;;12.18;7.88;;;;;;;-144.30;42.70;83707.09;5108192;28;20198;-50
2023/09/03 19:37:35;;;;;;;22.13;11.32;;;;;;;-144.30;42.85;83723.00;5104609;28;20219;-57
2023/09/03 19:40:38;;;;;;;18.80;9.60;;;;;;;-144.30;42.89;83738.88;5088138;28;20646;-51
2023/09/03 19:43:10;;;;;;;15.50;9.45;;;;;;;-144.30;43.21;83719.03;5094616;28;20677;-50
2023/09/03 19:45:44;;;;;;;13.35;9.73;;;;;;;-144.30;42.91;83734.91;5107724;28;20202;-50